sensor_id;sensor_type;location;lat;lon;timestamp;P1;durP1;ratioP1;P2;durP2;ratioP2
5543;SDS011;2795;47.652;13.128;2023-05-07T00:00:20;16.60;;;4.80;;
5543;SDS011;2795;47.652;13.128;2023-05-07T00:02:47;7.57;;;3.50;;
5543;SDS011;2795;47.652;13.128;2023-05-07T00:05:14;5.60;;;3.07;;
5543;SDS011;2795;47.652;13.128;2023-05-07T00:07:41;12.37;;;3.70;;
5543;SDS011;2795;47.652;13.128;2023-05-07T00:10:09;8.40;;;3.80;;
5543;SDS011;2795;47.652;13.128;2023-05-07T00:12:37;9.20;;;3.37;;
5543;SDS011;2795;47.652;13.128;2023-05-07T00:15:04;12.97;;;3.57;;
5543;SDS011;2795;47.652;13.128;2023-05-07T00:17:32;10.40;;;3.87;;
5543;SDS011;2795;47.652;13.128;2023-05-07T00:19:59;13.80;;;4.20;;
5543;SDS011;2795;47.652;13.128;2023-05-07T00:22:26;15.37;;;4.10;;
5543;SDS011;2795;47.652;13.128;2023-05-07T00:24:52;13.73;;;4.30;;
5543;SDS011;2795;47.652;13.128;2023-05-07T00:27:19;8.50;;;3.37;;
5543;SDS011;2795;47.652;13.128;2023-05-07T00:29:46;13.00;;;3.80;;
5543;SDS011;2795;47.652;13.128;2023-05-07T00:32:12;7.17;;;3.47;;
5543;SDS011;2795;47.652;13.128;2023-05-07T00:34:39;9.50;;;4.90;;
5543;SDS011;2795;47.652;13.128;2023-05-07T00:37:06;11.63;;;4.93;;
5543;SDS011;2795;47.652;13.128;2023-05-07T00:39:36;15.10;;;4.87;;
5543;SDS011;2795;47.652;13.128;2023-05-07T00:42:02;9.53;;;3.80;;
5543;SDS011;2795;47.652;13.128;2023-05-07T00:44:29;9.67;;;3.77;;
5543;SDS011;2795;47.652;13.128;2023-05-07T00:46:56;9.90;;;3.43;;
5543;SDS011;2795;47.652;13.128;2023-05-07T00:49:28;11.97;;;4.30;;
5543;SDS011;2795;47.652;13.128;2023-05-07T00:52:01;12.30;;;3.40;;
5543;SDS011;2795;47.652;13.128;2023-05-07T00:54:28;12.77;;;3.83;;
5543;SDS011;2795;47.652;13.128;2023-05-07T00:56:54;9.60;;;3.57;;
5543;SDS011;2795;47.652;13.128;2023-05-07T00:59:21;8.80;;;3.60;;
5543;SDS011;2795;47.652;13.128;2023-05-07T01:01:48;11.10;;;3.47;;
5543;SDS011;2795;47.652;13.128;2023-05-07T01:04:15;6.90;;;3.00;;
5543;SDS011;2795;47.652;13.128;2023-05-07T01:06:42;8.10;;;3.37;;
5543;SDS011;2795;47.652;13.128;2023-05-07T01:09:10;9.17;;;3.50;;
5543;SDS011;2795;47.652;13.128;2023-05-07T01:11:38;12.87;;;4.00;;
5543;SDS011;2795;47.652;13.128;2023-05-07T01:14:05;16.27;;;5.40;;
5543;SDS011;2795;47.652;13.128;2023-05-07T01:16:32;16.00;;;4.30;;
5543;SDS011;2795;47.652;13.128;2023-05-07T01:18:59;12.30;;;4.20;;
5543;SDS011;2795;47.652;13.128;2023-05-07T01:21:26;15.67;;;4.43;;
5543;SDS011;2795;47.652;13.128;2023-05-07T01:23:53;8.47;;;3.57;;
5543;SDS011;2795;47.652;13.128;2023-05-07T01:26:20;10.93;;;3.57;;
5543;SDS011;2795;47.652;13.128;2023-05-07T01:28:48;9.60;;;3.57;;
5543;SDS011;2795;47.652;13.128;2023-05-07T01:31:15;10.43;;;3.57;;
5543;SDS011;2795;47.652;13.128;2023-05-07T01:33:41;9.93;;;3.53;;
5543;SDS011;2795;47.652;13.128;2023-05-07T01:36:09;9.17;;;3.37;;
5543;SDS011;2795;47.652;13.128;2023-05-07T01:38:37;8.73;;;3.80;;
5543;SDS011;2795;47.652;13.128;2023-05-07T01:41:06;11.20;;;3.67;;
5543;SDS011;2795;47.652;13.128;2023-05-07T01:43:33;14.63;;;3.40;;
5543;SDS011;2795;47.652;13.128;2023-05-07T01:45:59;16.07;;;5.47;;
5543;SDS011;2795;47.652;13.128;2023-05-07T01:48:27;16.13;;;4.77;;
5543;SDS011;2795;47.652;13.128;2023-05-07T01:50:55;12.80;;;5.00;;
5543;SDS011;2795;47.652;13.128;2023-05-07T01:53:21;14.70;;;4.70;;
5543;SDS011;2795;47.652;13.128;2023-05-07T01:55:48;9.00;;;3.73;;
5543;SDS011;2795;47.652;13.128;2023-05-07T01:58:14;7.17;;;3.63;;
5543;SDS011;2795;47.652;13.128;2023-05-07T02:00:41;12.37;;;3.80;;
5543;SDS011;2795;47.652;13.128;2023-05-07T02:03:08;9.67;;;3.60;;
5543;SDS011;2795;47.652;13.128;2023-05-07T02:05:35;10.43;;;3.50;;
5543;SDS011;2795;47.652;13.128;2023-05-07T02:08:01;12.03;;;4.30;;
5543;SDS011;2795;47.652;13.128;2023-05-07T02:10:28;14.30;;;3.83;;
5543;SDS011;2795;47.652;13.128;2023-05-07T02:12:54;22.77;;;5.00;;
5543;SDS011;2795;47.652;13.128;2023-05-07T02:15:21;8.57;;;3.33;;
5543;SDS011;2795;47.652;13.128;2023-05-07T02:18:01;7.50;;;2.90;;
5543;SDS011;2795;47.652;13.128;2023-05-07T02:20:29;11.23;;;3.50;;
5543;SDS011;2795;47.652;13.128;2023-05-07T02:22:56;10.70;;;3.30;;
5543;SDS011;2795;47.652;13.128;2023-05-07T02:25:22;9.70;;;3.77;;
5543;SDS011;2795;47.652;13.128;2023-05-07T02:27:49;12.40;;;3.77;;
5543;SDS011;2795;47.652;13.128;2023-05-07T02:30:16;9.10;;;3.47;;
5543;SDS011;2795;47.652;13.128;2023-05-07T02:32:43;11.80;;;2.97;;
5543;SDS011;2795;47.652;13.128;2023-05-07T02:35:10;13.53;;;3.13;;
5543;SDS011;2795;47.652;13.128;2023-05-07T02:37:36;12.93;;;3.63;;
5543;SDS011;2795;47.652;13.128;2023-05-07T02:40:03;10.43;;;3.30;;
5543;SDS011;2795;47.652;13.128;2023-05-07T02:42:30;11.37;;;3.33;;
5543;SDS011;2795;47.652;13.128;2023-05-07T02:44:57;7.50;;;3.10;;
5543;SDS011;2795;47.652;13.128;2023-05-07T02:47:24;8.30;;;3.17;;
5543;SDS011;2795;47.652;13.128;2023-05-07T02:49:53;11.20;;;3.50;;
5543;SDS011;2795;47.652;13.128;2023-05-07T02:52:21;10.60;;;3.60;;
5543;SDS011;2795;47.652;13.128;2023-05-07T02:54:48;11.90;;;3.53;;
5543;SDS011;2795;47.652;13.128;2023-05-07T02:57:15;7.77;;;3.10;;
5543;SDS011;2795;47.652;13.128;2023-05-07T02:59:41;11.17;;;4.03;;
5543;SDS011;2795;47.652;13.128;2023-05-07T03:02:09;8.90;;;3.63;;
5543;SDS011;2795;47.652;13.128;2023-05-07T03:04:36;13.50;;;3.63;;
5543;SDS011;2795;47.652;13.128;2023-05-07T03:07:03;13.00;;;3.70;;
5543;SDS011;2795;47.652;13.128;2023-05-07T03:09:29;13.80;;;4.43;;
5543;SDS011;2795;47.652;13.128;2023-05-07T03:11:56;15.67;;;3.93;;
5543;SDS011;2795;47.652;13.128;2023-05-07T03:14:23;6.70;;;3.17;;
5543;SDS011;2795;47.652;13.128;2023-05-07T03:16:50;12.40;;;3.70;;
5543;SDS011;2795;47.652;13.128;2023-05-07T03:19:17;6.17;;;2.83;;
5543;SDS011;2795;47.652;13.128;2023-05-07T03:21:43;8.73;;;3.30;;
5543;SDS011;2795;47.652;13.128;2023-05-07T03:24:10;9.10;;;2.93;;
5543;SDS011;2795;47.652;13.128;2023-05-07T03:26:36;13.03;;;3.67;;
5543;SDS011;2795;47.652;13.128;2023-05-07T03:29:03;9.87;;;3.40;;
5543;SDS011;2795;47.652;13.128;2023-05-07T03:31:29;11.40;;;4.00;;
5543;SDS011;2795;47.652;13.128;2023-05-07T03:33:57;8.57;;;3.60;;
5543;SDS011;2795;47.652;13.128;2023-05-07T03:36:23;9.63;;;3.70;;
5543;SDS011;2795;47.652;13.128;2023-05-07T03:38:50;10.40;;;3.40;;
5543;SDS011;2795;47.652;13.128;2023-05-07T03:41:17;11.20;;;3.20;;
5543;SDS011;2795;47.652;13.128;2023-05-07T03:43:43;7.87;;;3.20;;
5543;SDS011;2795;47.652;13.128;2023-05-07T03:46:10;8.80;;;3.17;;
5543;SDS011;2795;47.652;13.128;2023-05-07T03:48:36;12.47;;;3.43;;
5543;SDS011;2795;47.652;13.128;2023-05-07T03:51:03;17.57;;;3.53;;
5543;SDS011;2795;47.652;13.128;2023-05-07T03:53:30;20.63;;;4.57;;
5543;SDS011;2795;47.652;13.128;2023-05-07T03:55:56;7.87;;;3.20;;
5543;SDS011;2795;47.652;13.128;2023-05-07T03:58:23;9.83;;;3.40;;
5543;SDS011;2795;47.652;13.128;2023-05-07T04:00:49;17.23;;;3.80;;
5543;SDS011;2795;47.652;13.128;2023-05-07T04:03:16;10.73;;;3.53;;
5543;SDS011;2795;47.652;13.128;2023-05-07T04:05:43;14.37;;;3.27;;
5543;SDS011;2795;47.652;13.128;2023-05-07T04:08:10;7.97;;;2.90;;
5543;SDS011;2795;47.652;13.128;2023-05-07T04:10:36;11.63;;;3.63;;
5543;SDS011;2795;47.652;13.128;2023-05-07T04:13:03;7.73;;;3.20;;
5543;SDS011;2795;47.652;13.128;2023-05-07T04:15:30;13.87;;;3.70;;
5543;SDS011;2795;47.652;13.128;2023-05-07T04:17:56;10.47;;;3.80;;
5543;SDS011;2795;47.652;13.128;2023-05-07T04:20:23;8.60;;;2.93;;
5543;SDS011;2795;47.652;13.128;2023-05-07T04:22:50;10.87;;;3.80;;
5543;SDS011;2795;47.652;13.128;2023-05-07T04:25:16;9.67;;;3.63;;
5543;SDS011;2795;47.652;13.128;2023-05-07T04:27:43;11.10;;;3.30;;
5543;SDS011;2795;47.652;13.128;2023-05-07T04:30:10;10.67;;;3.33;;
5543;SDS011;2795;47.652;13.128;2023-05-07T04:32:38;13.97;;;3.53;;
5543;SDS011;2795;47.652;13.128;2023-05-07T04:35:05;8.10;;;3.10;;
5543;SDS011;2795;47.652;13.128;2023-05-07T04:37:32;13.87;;;3.77;;
5543;SDS011;2795;47.652;13.128;2023-05-07T04:39:59;11.40;;;3.40;;
5543;SDS011;2795;47.652;13.128;2023-05-07T04:42:26;12.70;;;3.53;;
5543;SDS011;2795;47.652;13.128;2023-05-07T04:44:53;11.83;;;3.50;;
5543;SDS011;2795;47.652;13.128;2023-05-07T04:47:20;9.27;;;3.10;;
5543;SDS011;2795;47.652;13.128;2023-05-07T04:49:47;8.40;;;3.03;;
5543;SDS011;2795;47.652;13.128;2023-05-07T04:52:14;9.17;;;3.60;;
5543;SDS011;2795;47.652;13.128;2023-05-07T04:54:41;9.00;;;3.40;;
5543;SDS011;2795;47.652;13.128;2023-05-07T04:57:08;19.10;;;4.00;;
5543;SDS011;2795;47.652;13.128;2023-05-07T04:59:34;11.30;;;3.77;;
5543;SDS011;2795;47.652;13.128;2023-05-07T05:02:01;14.53;;;3.67;;
5543;SDS011;2795;47.652;13.128;2023-05-07T05:04:30;8.47;;;3.00;;
5543;SDS011;2795;47.652;13.128;2023-05-07T05:06:57;12.57;;;3.93;;
5543;SDS011;2795;47.652;13.128;2023-05-07T05:09:24;4.03;;;2.63;;
5543;SDS011;2795;47.652;13.128;2023-05-07T05:11:51;12.27;;;4.03;;
5543;SDS011;2795;47.652;13.128;2023-05-07T05:14:18;7.60;;;3.30;;
5543;SDS011;2795;47.652;13.128;2023-05-07T05:16:44;10.10;;;3.43;;
5543;SDS011;2795;47.652;13.128;2023-05-07T05:19:11;15.40;;;4.20;;
5543;SDS011;2795;47.652;13.128;2023-05-07T05:21:38;8.87;;;3.20;;
5543;SDS011;2795;47.652;13.128;2023-05-07T05:24:04;12.93;;;3.43;;
5543;SDS011;2795;47.652;13.128;2023-05-07T05:26:31;10.07;;;3.23;;
5543;SDS011;2795;47.652;13.128;2023-05-07T05:28:58;9.53;;;3.07;;
5543;SDS011;2795;47.652;13.128;2023-05-07T05:31:25;6.93;;;2.90;;
5543;SDS011;2795;47.652;13.128;2023-05-07T05:33:51;9.13;;;3.17;;
5543;SDS011;2795;47.652;13.128;2023-05-07T05:36:18;6.70;;;3.37;;
5543;SDS011;2795;47.652;13.128;2023-05-07T05:38:45;8.07;;;3.23;;
5543;SDS011;2795;47.652;13.128;2023-05-07T05:41:12;12.83;;;3.43;;
5543;SDS011;2795;47.652;13.128;2023-05-07T05:43:38;11.07;;;3.60;;
5543;SDS011;2795;47.652;13.128;2023-05-07T05:46:05;10.20;;;3.33;;
5543;SDS011;2795;47.652;13.128;2023-05-07T05:48:32;11.47;;;4.03;;
5543;SDS011;2795;47.652;13.128;2023-05-07T05:50:59;15.53;;;4.30;;
5543;SDS011;2795;47.652;13.128;2023-05-07T05:53:26;15.73;;;4.27;;
5543;SDS011;2795;47.652;13.128;2023-05-07T05:55:53;8.80;;;3.43;;
5543;SDS011;2795;47.652;13.128;2023-05-07T05:58:20;10.70;;;3.63;;
5543;SDS011;2795;47.652;13.128;2023-05-07T06:00:46;7.30;;;3.30;;
5543;SDS011;2795;47.652;13.128;2023-05-07T06:03:14;9.03;;;3.07;;
5543;SDS011;2795;47.652;13.128;2023-05-07T06:05:41;11.90;;;5.60;;
5543;SDS011;2795;47.652;13.128;2023-05-07T06:08:08;10.50;;;3.40;;
5543;SDS011;2795;47.652;13.128;2023-05-07T06:10:35;9.53;;;3.40;;
5543;SDS011;2795;47.652;13.128;2023-05-07T06:13:04;10.73;;;3.87;;
5543;SDS011;2795;47.652;13.128;2023-05-07T06:15:31;16.07;;;3.30;;
5543;SDS011;2795;47.652;13.128;2023-05-07T06:17:58;19.37;;;4.40;;
5543;SDS011;2795;47.652;13.128;2023-05-07T06:20:24;5.93;;;3.00;;
5543;SDS011;2795;47.652;13.128;2023-05-07T06:22:51;10.37;;;2.97;;
5543;SDS011;2795;47.652;13.128;2023-05-07T06:25:18;8.77;;;3.17;;
5543;SDS011;2795;47.652;13.128;2023-05-07T06:27:44;11.30;;;3.63;;
5543;SDS011;2795;47.652;13.128;2023-05-07T06:30:11;6.37;;;2.93;;
5543;SDS011;2795;47.652;13.128;2023-05-07T06:32:39;8.97;;;3.47;;
5543;SDS011;2795;47.652;13.128;2023-05-07T06:35:07;7.90;;;3.20;;
5543;SDS011;2795;47.652;13.128;2023-05-07T06:37:34;11.33;;;3.50;;
5543;SDS011;2795;47.652;13.128;2023-05-07T06:40:00;15.53;;;3.67;;
5543;SDS011;2795;47.652;13.128;2023-05-07T06:42:27;11.83;;;3.77;;
5543;SDS011;2795;47.652;13.128;2023-05-07T06:44:54;11.93;;;3.47;;
5543;SDS011;2795;47.652;13.128;2023-05-07T06:47:21;10.53;;;3.20;;
5543;SDS011;2795;47.652;13.128;2023-05-07T06:49:48;13.17;;;3.67;;
5543;SDS011;2795;47.652;13.128;2023-05-07T06:52:14;8.43;;;2.80;;
5543;SDS011;2795;47.652;13.128;2023-05-07T06:54:41;10.87;;;3.80;;
5543;SDS011;2795;47.652;13.128;2023-05-07T06:57:09;10.43;;;3.37;;
5543;SDS011;2795;47.652;13.128;2023-05-07T06:59:35;10.10;;;3.10;;
5543;SDS011;2795;47.652;13.128;2023-05-07T07:02:02;9.13;;;2.90;;
5543;SDS011;2795;47.652;13.128;2023-05-07T07:04:29;9.87;;;3.33;;
5543;SDS011;2795;47.652;13.128;2023-05-07T07:06:56;7.60;;;3.10;;
5543;SDS011;2795;47.652;13.128;2023-05-07T07:09:23;15.90;;;3.90;;
5543;SDS011;2795;47.652;13.128;2023-05-07T07:11:49;7.93;;;3.17;;
5543;SDS011;2795;47.652;13.128;2023-05-07T07:14:16;7.10;;;2.73;;
5543;SDS011;2795;47.652;13.128;2023-05-07T07:16:43;8.20;;;2.90;;
5543;SDS011;2795;47.652;13.128;2023-05-07T07:19:10;12.10;;;3.77;;
5543;SDS011;2795;47.652;13.128;2023-05-07T07:21:36;10.93;;;3.10;;
5543;SDS011;2795;47.652;13.128;2023-05-07T07:24:03;9.70;;;3.20;;
5543;SDS011;2795;47.652;13.128;2023-05-07T07:26:30;7.93;;;2.93;;
5543;SDS011;2795;47.652;13.128;2023-05-07T07:28:57;13.20;;;3.47;;
5543;SDS011;2795;47.652;13.128;2023-05-07T07:31:23;7.83;;;3.00;;
5543;SDS011;2795;47.652;13.128;2023-05-07T07:33:50;9.00;;;2.63;;
5543;SDS011;2795;47.652;13.128;2023-05-07T07:36:18;9.10;;;3.17;;
5543;SDS011;2795;47.652;13.128;2023-05-07T07:38:45;9.23;;;3.37;;
5543;SDS011;2795;47.652;13.128;2023-05-07T07:41:12;9.83;;;2.80;;
5543;SDS011;2795;47.652;13.128;2023-05-07T07:43:38;8.60;;;3.20;;
5543;SDS011;2795;47.652;13.128;2023-05-07T07:46:05;11.37;;;3.33;;
5543;SDS011;2795;47.652;13.128;2023-05-07T07:48:31;15.20;;;3.77;;
5543;SDS011;2795;47.652;13.128;2023-05-07T07:50:58;11.97;;;3.50;;
5543;SDS011;2795;47.652;13.128;2023-05-07T07:53:24;14.20;;;3.73;;
5543;SDS011;2795;47.652;13.128;2023-05-07T07:55:52;11.00;;;3.30;;
5543;SDS011;2795;47.652;13.128;2023-05-07T07:58:24;8.50;;;2.87;;
5543;SDS011;2795;47.652;13.128;2023-05-07T08:00:51;11.23;;;3.13;;
5543;SDS011;2795;47.652;13.128;2023-05-07T08:03:17;8.80;;;2.73;;
5543;SDS011;2795;47.652;13.128;2023-05-07T08:05:44;9.57;;;2.93;;
5543;SDS011;2795;47.652;13.128;2023-05-07T08:08:11;13.67;;;3.20;;
5543;SDS011;2795;47.652;13.128;2023-05-07T08:10:37;12.00;;;3.30;;
5543;SDS011;2795;47.652;13.128;2023-05-07T08:13:05;9.60;;;3.00;;
5543;SDS011;2795;47.652;13.128;2023-05-07T08:15:32;10.00;;;3.20;;
5543;SDS011;2795;47.652;13.128;2023-05-07T08:17:59;9.90;;;3.00;;
5543;SDS011;2795;47.652;13.128;2023-05-07T08:20:26;7.27;;;2.73;;
5543;SDS011;2795;47.652;13.128;2023-05-07T08:22:53;10.03;;;3.30;;
5543;SDS011;2795;47.652;13.128;2023-05-07T08:25:20;20.30;;;9.40;;
5543;SDS011;2795;47.652;13.128;2023-05-07T08:27:46;12.70;;;4.67;;
5543;SDS011;2795;47.652;13.128;2023-05-07T08:30:13;4.00;;;2.40;;
5543;SDS011;2795;47.652;13.128;2023-05-07T08:32:40;9.60;;;3.23;;
5543;SDS011;2795;47.652;13.128;2023-05-07T08:35:07;11.97;;;3.53;;
5543;SDS011;2795;47.652;13.128;2023-05-07T08:37:34;7.70;;;2.70;;
5543;SDS011;2795;47.652;13.128;2023-05-07T08:40:00;4.93;;;2.40;;
5543;SDS011;2795;47.652;13.128;2023-05-07T08:42:27;7.10;;;3.03;;
5543;SDS011;2795;47.652;13.128;2023-05-07T08:44:54;6.77;;;2.67;;
5543;SDS011;2795;47.652;13.128;2023-05-07T08:47:23;4.67;;;2.53;;
5543;SDS011;2795;47.652;13.128;2023-05-07T08:49:55;5.83;;;2.43;;
5543;SDS011;2795;47.652;13.128;2023-05-07T08:52:21;6.80;;;2.80;;
5543;SDS011;2795;47.652;13.128;2023-05-07T08:54:48;10.27;;;3.30;;
5543;SDS011;2795;47.652;13.128;2023-05-07T08:57:15;6.07;;;2.60;;
5543;SDS011;2795;47.652;13.128;2023-05-07T08:59:41;9.27;;;3.10;;
5543;SDS011;2795;47.652;13.128;2023-05-07T09:02:08;9.07;;;2.80;;
5543;SDS011;2795;47.652;13.128;2023-05-07T09:04:36;12.90;;;3.13;;
5543;SDS011;2795;47.652;13.128;2023-05-07T09:07:04;10.10;;;3.03;;
5543;SDS011;2795;47.652;13.128;2023-05-07T09:09:34;9.43;;;3.23;;
5543;SDS011;2795;47.652;13.128;2023-05-07T09:12:01;6.37;;;2.70;;
5543;SDS011;2795;47.652;13.128;2023-05-07T09:14:28;11.07;;;3.20;;
5543;SDS011;2795;47.652;13.128;2023-05-07T09:16:54;15.50;;;4.10;;
5543;SDS011;2795;47.652;13.128;2023-05-07T09:19:24;4.10;;;2.17;;
5543;SDS011;2795;47.652;13.128;2023-05-07T09:22:01;11.83;;;3.53;;
5543;SDS011;2795;47.652;13.128;2023-05-07T09:24:28;8.57;;;2.77;;
5543;SDS011;2795;47.652;13.128;2023-05-07T09:27:03;12.57;;;3.67;;
5543;SDS011;2795;47.652;13.128;2023-05-07T09:29:30;7.53;;;3.30;;
5543;SDS011;2795;47.652;13.128;2023-05-07T09:32:03;18.10;;;4.67;;
5543;SDS011;2795;47.652;13.128;2023-05-07T09:34:33;22.17;;;5.57;;
5543;SDS011;2795;47.652;13.128;2023-05-07T09:37:01;13.03;;;3.57;;
5543;SDS011;2795;47.652;13.128;2023-05-07T09:39:38;15.73;;;4.07;;
5543;SDS011;2795;47.652;13.128;2023-05-07T09:42:12;13.13;;;4.00;;
5543;SDS011;2795;47.652;13.128;2023-05-07T09:44:41;11.23;;;3.80;;
5543;SDS011;2795;47.652;13.128;2023-05-07T09:47:09;14.63;;;3.77;;
5543;SDS011;2795;47.652;13.128;2023-05-07T09:49:37;14.13;;;3.87;;
5543;SDS011;2795;47.652;13.128;2023-05-07T09:52:06;10.40;;;3.50;;
5543;SDS011;2795;47.652;13.128;2023-05-07T09:54:35;17.80;;;4.67;;
5543;SDS011;2795;47.652;13.128;2023-05-07T09:57:04;9.67;;;3.67;;
5543;SDS011;2795;47.652;13.128;2023-05-07T09:59:32;13.87;;;3.53;;
5543;SDS011;2795;47.652;13.128;2023-05-07T10:01:59;8.70;;;3.30;;
5543;SDS011;2795;47.652;13.128;2023-05-07T10:04:30;21.00;;;4.87;;
5543;SDS011;2795;47.652;13.128;2023-05-07T10:06:57;11.97;;;4.00;;
5543;SDS011;2795;47.652;13.128;2023-05-07T10:09:25;8.07;;;3.30;;
5543;SDS011;2795;47.652;13.128;2023-05-07T10:11:52;11.93;;;3.90;;
5543;SDS011;2795;47.652;13.128;2023-05-07T10:14:19;11.93;;;4.33;;
5543;SDS011;2795;47.652;13.128;2023-05-07T10:16:47;10.03;;;3.83;;
5543;SDS011;2795;47.652;13.128;2023-05-07T10:19:14;6.37;;;3.40;;
5543;SDS011;2795;47.652;13.128;2023-05-07T10:21:48;11.40;;;4.03;;
5543;SDS011;2795;47.652;13.128;2023-05-07T10:24:21;6.77;;;3.90;;
5543;SDS011;2795;47.652;13.128;2023-05-07T10:26:51;8.20;;;3.70;;
5543;SDS011;2795;47.652;13.128;2023-05-07T10:32:16;9.17;;;4.17;;
5543;SDS011;2795;47.652;13.128;2023-05-07T10:35:02;14.00;;;4.50;;
5543;SDS011;2795;47.652;13.128;2023-05-07T10:37:30;12.20;;;4.13;;
5543;SDS011;2795;47.652;13.128;2023-05-07T10:39:57;10.97;;;4.03;;
5543;SDS011;2795;47.652;13.128;2023-05-07T10:42:23;7.80;;;3.70;;
5543;SDS011;2795;47.652;13.128;2023-05-07T10:44:50;10.77;;;3.83;;
5543;SDS011;2795;47.652;13.128;2023-05-07T10:47:17;7.17;;;3.50;;
5543;SDS011;2795;47.652;13.128;2023-05-07T10:54:41;10.13;;;3.90;;
5543;SDS011;2795;47.652;13.128;2023-05-07T11:00:02;14.97;;;4.23;;
5543;SDS011;2795;47.652;13.128;2023-05-07T11:03:16;17.10;;;4.50;;
5543;SDS011;2795;47.652;13.128;2023-05-07T11:05:27;7.03;;;3.30;;
5543;SDS011;2795;47.652;13.128;2023-05-07T11:08:01;10.90;;;4.13;;
5543;SDS011;2795;47.652;13.128;2023-05-07T11:10:48;8.43;;;3.93;;
5543;SDS011;2795;47.652;13.128;2023-05-07T11:13:16;13.83;;;4.40;;
5543;SDS011;2795;47.652;13.128;2023-05-07T11:18:13;11.80;;;4.20;;
5543;SDS011;2795;47.652;13.128;2023-05-07T11:20:47;12.80;;;4.40;;
5543;SDS011;2795;47.652;13.128;2023-05-07T11:26:02;11.67;;;4.37;;
5543;SDS011;2795;47.652;13.128;2023-05-07T11:28:37;10.07;;;4.10;;
5543;SDS011;2795;47.652;13.128;2023-05-07T11:31:04;14.40;;;4.83;;
5543;SDS011;2795;47.652;13.128;2023-05-07T11:33:31;10.43;;;4.20;;
5543;SDS011;2795;47.652;13.128;2023-05-07T11:35:59;11.00;;;4.67;;
5543;SDS011;2795;47.652;13.128;2023-05-07T11:38:27;14.10;;;5.00;;
5543;SDS011;2795;47.652;13.128;2023-05-07T11:40:58;17.20;;;5.27;;
5543;SDS011;2795;47.652;13.128;2023-05-07T11:43:31;8.00;;;4.50;;
5543;SDS011;2795;47.652;13.128;2023-05-07T11:46:06;17.90;;;5.50;;
5543;SDS011;2795;47.652;13.128;2023-05-07T11:48:34;14.40;;;5.17;;
5543;SDS011;2795;47.652;13.128;2023-05-07T11:51:02;10.17;;;5.20;;
5543;SDS011;2795;47.652;13.128;2023-05-07T11:53:35;14.87;;;6.20;;
5543;SDS011;2795;47.652;13.128;2023-05-07T11:56:10;12.47;;;5.40;;
5543;SDS011;2795;47.652;13.128;2023-05-07T11:58:39;14.40;;;6.30;;
5543;SDS011;2795;47.652;13.128;2023-05-07T12:01:10;14.43;;;7.10;;
5543;SDS011;2795;47.652;13.128;2023-05-07T12:03:37;10.97;;;5.50;;
5543;SDS011;2795;47.652;13.128;2023-05-07T12:06:09;14.10;;;5.50;;
5543;SDS011;2795;47.652;13.128;2023-05-07T12:08:37;18.63;;;5.50;;
5543;SDS011;2795;47.652;13.128;2023-05-07T12:11:09;19.63;;;6.37;;
5543;SDS011;2795;47.652;13.128;2023-05-07T12:13:39;10.80;;;5.60;;
5543;SDS011;2795;47.652;13.128;2023-05-07T12:16:07;10.67;;;5.47;;
5543;SDS011;2795;47.652;13.128;2023-05-07T12:18:34;15.57;;;5.67;;
5543;SDS011;2795;47.652;13.128;2023-05-07T12:21:02;13.63;;;5.70;;
5543;SDS011;2795;47.652;13.128;2023-05-07T12:23:28;11.60;;;5.40;;
5543;SDS011;2795;47.652;13.128;2023-05-07T12:25:56;12.27;;;5.40;;
5543;SDS011;2795;47.652;13.128;2023-05-07T12:28:22;14.83;;;5.90;;
5543;SDS011;2795;47.652;13.128;2023-05-07T12:30:49;10.27;;;5.20;;
5543;SDS011;2795;47.652;13.128;2023-05-07T12:33:23;15.17;;;5.10;;
5543;SDS011;2795;47.652;13.128;2023-05-07T12:35:50;11.10;;;5.10;;
5543;SDS011;2795;47.652;13.128;2023-05-07T12:38:19;10.30;;;4.73;;
5543;SDS011;2795;47.652;13.128;2023-05-07T12:40:47;9.73;;;4.67;;
5543;SDS011;2795;47.652;13.128;2023-05-07T12:43:21;15.40;;;5.30;;
5543;SDS011;2795;47.652;13.128;2023-05-07T12:45:53;22.23;;;6.63;;
5543;SDS011;2795;47.652;13.128;2023-05-07T12:48:21;10.93;;;4.87;;
5543;SDS011;2795;47.652;13.128;2023-05-07T12:50:51;20.67;;;7.47;;
5543;SDS011;2795;47.652;13.128;2023-05-07T12:53:21;17.60;;;6.00;;
5543;SDS011;2795;47.652;13.128;2023-05-07T12:55:49;19.20;;;4.67;;
5543;SDS011;2795;47.652;13.128;2023-05-07T12:58:27;7.80;;;4.30;;
5543;SDS011;2795;47.652;13.128;2023-05-07T13:00:56;14.80;;;4.67;;
5543;SDS011;2795;47.652;13.128;2023-05-07T13:03:36;12.00;;;4.77;;
5543;SDS011;2795;47.652;13.128;2023-05-07T13:06:06;17.23;;;4.80;;
5543;SDS011;2795;47.652;13.128;2023-05-07T13:08:37;20.50;;;5.53;;
5543;SDS011;2795;47.652;13.128;2023-05-07T13:11:12;16.43;;;4.33;;
5543;SDS011;2795;47.652;13.128;2023-05-07T13:13:39;11.37;;;4.43;;
5543;SDS011;2795;47.652;13.128;2023-05-07T13:16:07;12.80;;;5.00;;
5543;SDS011;2795;47.652;13.128;2023-05-07T13:18:36;10.23;;;4.47;;
5543;SDS011;2795;47.652;13.128;2023-05-07T13:21:04;18.57;;;5.10;;
5543;SDS011;2795;47.652;13.128;2023-05-07T13:23:30;17.53;;;4.97;;
5543;SDS011;2795;47.652;13.128;2023-05-07T13:25:57;16.57;;;4.83;;
5543;SDS011;2795;47.652;13.128;2023-05-07T13:28:24;9.07;;;4.27;;
5543;SDS011;2795;47.652;13.128;2023-05-07T13:30:51;8.80;;;4.30;;
5543;SDS011;2795;47.652;13.128;2023-05-07T13:33:18;8.67;;;4.27;;
5543;SDS011;2795;47.652;13.128;2023-05-07T13:35:45;13.43;;;4.93;;
5543;SDS011;2795;47.652;13.128;2023-05-07T13:38:12;9.90;;;4.20;;
5543;SDS011;2795;47.652;13.128;2023-05-07T13:40:38;12.17;;;4.07;;
5543;SDS011;2795;47.652;13.128;2023-05-07T13:43:05;20.50;;;6.30;;
5543;SDS011;2795;47.652;13.128;2023-05-07T13:45:32;8.50;;;4.03;;
5543;SDS011;2795;47.652;13.128;2023-05-07T13:47:59;13.30;;;4.93;;
5543;SDS011;2795;47.652;13.128;2023-05-07T13:50:26;14.20;;;5.17;;
5543;SDS011;2795;47.652;13.128;2023-05-07T13:52:56;16.73;;;4.87;;
5543;SDS011;2795;47.652;13.128;2023-05-07T13:55:23;8.00;;;4.23;;
5543;SDS011;2795;47.652;13.128;2023-05-07T13:57:56;14.50;;;4.73;;
5543;SDS011;2795;47.652;13.128;2023-05-07T14:00:25;13.03;;;4.50;;
5543;SDS011;2795;47.652;13.128;2023-05-07T14:02:52;11.20;;;4.30;;
5543;SDS011;2795;47.652;13.128;2023-05-07T14:05:20;21.00;;;5.40;;
5543;SDS011;2795;47.652;13.128;2023-05-07T14:07:46;15.43;;;4.80;;
5543;SDS011;2795;47.652;13.128;2023-05-07T14:10:15;24.27;;;6.00;;
5543;SDS011;2795;47.652;13.128;2023-05-07T14:12:41;17.53;;;4.70;;
5543;SDS011;2795;47.652;13.128;2023-05-07T14:15:08;15.43;;;4.50;;
5543;SDS011;2795;47.652;13.128;2023-05-07T14:17:35;9.07;;;4.47;;
5543;SDS011;2795;47.652;13.128;2023-05-07T14:20:02;18.67;;;4.83;;
5543;SDS011;2795;47.652;13.128;2023-05-07T14:22:29;10.20;;;4.13;;
5543;SDS011;2795;47.652;13.128;2023-05-07T14:24:56;8.57;;;3.90;;
5543;SDS011;2795;47.652;13.128;2023-05-07T14:27:32;11.13;;;4.23;;
5543;SDS011;2795;47.652;13.128;2023-05-07T14:29:58;8.67;;;4.13;;
5543;SDS011;2795;47.652;13.128;2023-05-07T14:32:25;19.20;;;5.67;;
5543;SDS011;2795;47.652;13.128;2023-05-07T14:34:52;11.10;;;4.53;;
5543;SDS011;2795;47.652;13.128;2023-05-07T14:37:19;12.20;;;4.67;;
5543;SDS011;2795;47.652;13.128;2023-05-07T14:39:46;12.20;;;4.43;;
5543;SDS011;2795;47.652;13.128;2023-05-07T14:42:15;11.87;;;5.20;;
5543;SDS011;2795;47.652;13.128;2023-05-07T14:44:42;11.63;;;4.80;;
5543;SDS011;2795;47.652;13.128;2023-05-07T14:47:09;14.53;;;5.20;;
5543;SDS011;2795;47.652;13.128;2023-05-07T14:49:35;15.33;;;5.20;;
5543;SDS011;2795;47.652;13.128;2023-05-07T14:52:02;12.97;;;5.10;;
5543;SDS011;2795;47.652;13.128;2023-05-07T14:54:30;12.43;;;4.43;;
5543;SDS011;2795;47.652;13.128;2023-05-07T14:56:57;13.30;;;5.00;;
5543;SDS011;2795;47.652;13.128;2023-05-07T14:59:23;10.33;;;4.80;;
5543;SDS011;2795;47.652;13.128;2023-05-07T15:01:51;11.43;;;4.43;;
5543;SDS011;2795;47.652;13.128;2023-05-07T15:04:18;9.17;;;4.20;;
5543;SDS011;2795;47.652;13.128;2023-05-07T15:06:45;17.00;;;5.53;;
5543;SDS011;2795;47.652;13.128;2023-05-07T15:09:12;10.00;;;4.63;;
5543;SDS011;2795;47.652;13.128;2023-05-07T15:11:39;12.03;;;5.00;;